Time;durP1;ratioP1;P1;durP2;ratioP2;P2;SDS_P1;SDS_P2;PMS_P1;PMS_P2;Temp;Humidity;BMP_temperature;BMP_pressure;BME280_temperature;BME280_humidity;BME280_pressure;Samples;Min_cycle;Max_cycle;Signal;HPM_P1;HPM_P2
2022/03/04 00:02:13;;;;;;;;;;;13.20;51.90;;;;;;5071925;28;20284;-70
2022/03/04 00:04:39;;;;;;;;;;;12.90;51.80;;;;;;5071859;28;20007;-69
2022/03/04 00:07:06;;;;;;;;;;;12.90;51.80;;;;;;5072570;28;19946;-69
2022/03/04 00:09:34;;;;;;;;;;;12.90;51.80;;;;;;5071653;28;19943;-69
2022/03/04 00:12:02;;;;;;;;;;;12.90;51.80;;;;;;5071665;28;19935;-70
2022/03/04 00:14:29;;;;;;;;;;;12.90;51.80;;;;;;5070502;28;20373;-70
2022/03/04 00:16:55;;;;;;;;;;;12.90;51.80;;;;;;5071345;28;20381;-69
2022/03/04 00:19:22;;;;;;;;;;;12.90;51.80;;;;;;5071669;28;20421;-70
2022/03/04 00:21:49;;;;;;;;;;;12.90;51.90;;;;;;5082203;28;19924;-69
2022/03/04 00:24:16;;;;;;;;;;;12.90;51.80;;;;;;5090744;28;19977;-69
2022/03/04 00:26:44;;;;;;;;;;;12.80;51.80;;;;;;5091692;28;19931;-68
2022/03/04 00:29:11;;;;;;;;;;;13.20;52.00;;;;;;5091565;28;19924;-69
2022/03/04 00:31:37;;;;;;;;;;;12.90;51.90;;;;;;5090719;28;19964;-70
2022/03/04 00:34:06;;;;;;;;;;;12.80;51.80;;;;;;5091742;28;20011;-70
2022/03/04 00:36:33;;;;;;;;;;;13.60;52.30;;;;;;5076673;28;19944;-69
2022/03/04 00:38:59;;;;;;;;;;;12.90;51.90;;;;;;5074757;28;19931;-70
2022/03/04 00:41:26;;;;;;;;;;;12.80;51.70;;;;;;5073820;28;19924;-69
2022/03/04 00:43:54;;;;;;;;;;;12.80;51.80;;;;;;5073962;28;20409;-69
2022/03/04 00:46:20;;;;;;;;;;;12.80;51.80;;;;;;5074869;28;19928;-69
2022/03/04 00:48:47;;;;;;;;;;;12.80;51.80;;;;;;5074760;28;19924;-69
2022/03/04 00:51:13;;;;;;;;;;;12.80;51.80;;;;;;5073513;28;19930;-69
2022/03/04 00:53:40;;;;;;;;;;;12.80;51.80;;;;;;5074892;28;19925;-69
2022/03/04 00:56:07;;;;;;;;;;;12.80;51.80;;;;;;5074482;28;19975;-69
2022/03/04 00:58:34;;;;;;;;;;;12.80;51.80;;;;;;5073686;28;19924;-69
2022/03/04 01:01:02;;;;;;;;;;;12.80;51.70;;;;;;5073528;28;19925;-69
2022/03/04 01:03:28;;;;;;;;;;;12.80;51.70;;;;;;5074255;28;20300;-69
2022/03/04 01:05:55;;;;;;;;;;;12.80;51.80;;;;;;5074674;28;19924;-69
2022/03/04 01:08:22;;;;;;;;;;;12.80;51.70;;;;;;5075839;28;19925;-69
2022/03/04 01:10:48;;;;;;;;;;;12.80;51.70;;;;;;5074440;28;19924;-69
2022/03/04 01:13:15;;;;;;;;;;;12.80;51.70;;;;;;5074850;28;19924;-69
2022/03/04 01:15:41;;;;;;;;;;;13.50;52.10;;;;;;5074119;28;19925;-69
2022/03/04 01:18:09;;;;;;;;;;;12.80;51.70;;;;;;5074000;28;19931;-70
2022/03/04 01:20:36;;;;;;;;;;;12.80;51.70;;;;;;5074186;28;19925;-68
2022/03/04 01:23:02;;;;;;;;;;;12.90;51.70;;;;;;5074119;28;19931;-69
2022/03/04 01:25:29;;;;;;;;;;;12.90;51.70;;;;;;5074909;28;19935;-68
2022/03/04 01:27:55;;;;;;;;;;;12.90;51.70;;;;;;5074106;28;19931;-69
2022/03/04 01:30:22;;;;;;;;;;;12.90;51.70;;;;;;5074327;28;19931;-69
2022/03/04 01:32:49;;;;;;;;;;;12.90;51.70;;;;;;5073987;28;19931;-70
2022/03/04 01:35:17;;;;;;;;;;;12.90;51.60;;;;;;5073916;28;19977;-69
2022/03/04 01:37:43;;;;;;;;;;;12.90;51.70;;;;;;5073719;28;19930;-70
2022/03/04 01:40:10;;;;;;;;;;;12.90;51.60;;;;;;5073613;28;19924;-69
2022/03/04 01:42:37;;;;;;;;;;;12.90;51.60;;;;;;5085957;28;19924;-70
2022/03/04 01:45:04;;;;;;;;;;;12.90;51.60;;;;;;5093953;28;19934;-69
2022/03/04 01:47:31;;;;;;;;;;;12.90;51.60;;;;;;5093506;28;20377;-70
2022/03/04 01:49:57;;;;;;;;;;;12.90;51.50;;;;;;5092377;28;19928;-69
2022/03/04 01:52:25;;;;;;;;;;;12.90;51.60;;;;;;5093977;28;19924;-69
2022/03/04 01:54:52;;;;;;;;;;;12.90;51.60;;;;;;5093807;28;19930;-69
2022/03/04 01:57:18;;;;;;;;;;;13.80;52.10;;;;;;5093748;28;19924;-69
2022/03/04 01:59:45;;;;;;;;;;;12.90;51.60;;;;;;5092029;28;19924;-69
2022/03/04 02:02:11;;;;;;;;;;;13.00;51.60;;;;;;5093339;28;20365;-70
2022/03/04 02:04:38;;;;;;;;;;;13.10;51.60;;;;;;5092336;28;20304;-69
2022/03/04 02:07:04;;;;;;;;;;;12.90;51.50;;;;;;5093252;28;19924;-69
2022/03/04 02:09:32;;;;;;;;;;;12.90;51.50;;;;;;5093599;28;19924;-69
2022/03/04 02:12:00;;;;;;;;;;;13.00;51.60;;;;;;5093392;28;19924;-69
2022/03/04 02:14:26;;;;;;;;;;;13.00;51.50;;;;;;5093434;28;19982;-69
2022/03/04 02:16:53;;;;;;;;;;;12.90;52.10;;;;;;5074681;28;19925;-69
2022/03/04 02:19:20;;;;;;;;;;;13.40;51.70;;;;;;5073055;28;20395;-69
2022/03/04 02:21:48;;;;;;;;;;;13.60;51.80;;;;;;5071623;28;19924;-69
2022/03/04 02:24:17;;;;;;;;;;;12.90;51.40;;;;;;5073094;28;19932;-69
2022/03/04 02:26:43;;;;;;;;;;;13.00;51.50;;;;;;5072621;28;19986;-69
2022/03/04 02:29:10;;;;;;;;;;;13.10;51.50;;;;;;5071915;28;19934;-69
2022/03/04 02:31:36;;;;;;;;;;;13.60;51.80;;;;;;5074796;28;19930;-69
2022/03/04 02:34:03;;;;;;;;;;;13.00;52.10;;;;;;5093167;28;19924;-69
2022/03/04 02:36:29;;;;;;;;;;;13.90;52.00;;;;;;5092608;28;19931;-69
2022/03/04 02:38:57;;;;;;;;;;;13.00;51.50;;;;;;5093230;28;19924;-69
2022/03/04 02:41:24;;;;;;;;;;;13.00;51.50;;;;;;5090298;28;19924;-69
2022/03/04 02:43:51;;;;;;;;;;;13.00;51.50;;;;;;5093168;28;19924;-69
2022/03/04 02:46:17;;;;;;;;;;;13.00;51.50;;;;;;5092567;28;19932;-69
2022/03/04 02:48:44;;;;;;;;;;;13.00;51.50;;;;;;5081395;28;19925;-68
2022/03/04 02:51:11;;;;;;;;;;;13.00;51.50;;;;;;5072430;28;19924;-69
2022/03/04 02:53:37;;;;;;;;;;;13.80;51.90;;;;;;5072482;28;20452;-69
2022/03/04 02:56:05;;;;;;;;;;;13.00;51.50;;;;;;5072183;28;20385;-69
2022/03/04 02:58:32;;;;;;;;;;;13.00;51.50;;;;;;5071993;28;19925;-69
2022/03/04 03:00:58;;;;;;;;;;;13.70;51.80;;;;;;5072424;28;19928;-69
2022/03/04 03:03:25;;;;;;;;;;;13.00;51.40;;;;;;5072498;28;19924;-69
2022/03/04 03:05:51;;;;;;;;;;;13.00;51.40;;;;;;5073526;28;19925;-69
2022/03/04 03:08:18;;;;;;;;;;;13.00;51.40;;;;;;5072295;28;19971;-69
2022/03/04 03:10:44;;;;;;;;;;;13.00;51.50;;;;;;5072140;28;20378;-68
2022/03/04 03:13:12;;;;;;;;;;;13.50;51.70;;;;;;5071247;28;19931;-69
2022/03/04 03:15:39;;;;;;;;;;;13.70;51.80;;;;;;5071843;28;19925;-69
2022/03/04 03:18:06;;;;;;;;;;;13.00;51.40;;;;;;5072178;28;19925;-70
2022/03/04 03:20:33;;;;;;;;;;;13.00;51.40;;;;;;5072498;28;19993;-69
2022/03/04 03:22:59;;;;;;;;;;;13.00;51.50;;;;;;5090485;28;19924;-69
2022/03/04 03:25:26;;;;;;;;;;;13.50;51.70;;;;;;5092118;28;19924;-69
2022/03/04 03:27:53;;;;;;;;;;;13.00;51.40;;;;;;5092570;28;19924;-69
2022/03/04 03:30:21;;;;;;;;;;;13.00;51.40;;;;;;5092085;28;20385;-69
2022/03/04 03:32:47;;;;;;;;;;;13.00;51.40;;;;;;5092329;28;20304;-69
2022/03/04 03:35:14;;;;;;;;;;;13.00;51.40;;;;;;5092479;28;20265;-69
2022/03/04 03:37:40;;;;;;;;;;;13.60;51.70;;;;;;5089147;28;19964;-69
2022/03/04 03:40:08;;;;;;;;;;;13.00;51.40;;;;;;5092384;28;19931;-69
2022/03/04 03:42:35;;;;;;;;;;;13.00;51.30;;;;;;5090860;28;19924;-69
2022/03/04 03:45:02;;;;;;;;;;;13.00;51.30;;;;;;5092186;28;19924;-69
2022/03/04 03:47:29;;;;;;;;;;;13.00;51.30;;;;;;5090882;28;19935;-69
2022/03/04 03:49:56;;;;;;;;;;;13.00;51.30;;;;;;5090875;28;19924;-69
2022/03/04 03:52:23;;;;;;;;;;;13.00;51.30;;;;;;5092608;28;20019;-69
2022/03/04 03:54:49;;;;;;;;;;;13.00;51.30;;;;;;5090080;28;20402;-69
2022/03/04 03:57:16;;;;;;;;;;;13.30;51.50;;;;;;5090826;28;20390;-69
2022/03/04 03:59:42;;;;;;;;;;;13.50;51.60;;;;;;5091980;28;20399;-69
2022/03/04 04:02:09;;;;;;;;;;;13.80;51.70;;;;;;5092269;28;19924;-69
2022/03/04 04:04:38;;;;;;;;;;;13.70;51.70;;;;;;5091762;28;19924;-68
2022/03/04 04:07:05;;;;;;;;;;;13.00;51.30;;;;;;5074202;28;19925;-69
2022/03/04 04:09:31;;;;;;;;;;;13.00;51.30;;;;;;5054100;28;19924;-69
2022/03/04 04:11:58;;;;;;;;;;;13.80;51.80;;;;;;5073336;28;19935;-69
2022/03/04 04:14:25;;;;;;;;;;;13.40;51.50;;;;;;5074554;28;19924;-69
2022/03/04 04:16:52;;;;;;;;;;;13.00;51.30;;;;;;5075097;28;19931;-69
2022/03/04 04:19:18;;;;;;;;;;;13.00;51.30;;;;;;5076882;28;19934;-68
2022/03/04 04:21:46;;;;;;;;;;;13.60;51.50;;;;;;5094572;28;19924;-69
2022/03/04 04:24:13;;;;;;;;;;;13.00;51.20;;;;;;5095696;28;19924;-69
2022/03/04 04:26:39;;;;;;;;;;;13.00;51.30;;;;;;5095265;28;19924;-69
2022/03/04 04:29:06;;;;;;;;;;;13.20;51.30;;;;;;5095315;28;19924;-69
2022/03/04 04:31:32;;;;;;;;;;;13.00;51.20;;;;;;5095433;28;19942;-69
2022/03/04 04:33:59;;;;;;;;;;;14.00;51.80;;;;;;5094400;28;19924;-69
2022/03/04 04:36:26;;;;;;;;;;;13.00;51.20;;;;;;5088789;28;20011;-69
2022/03/04 04:38:54;;;;;;;;;;;13.00;51.20;;;;;;5073936;28;19925;-69
2022/03/04 04:41:20;;;;;;;;;;;13.70;51.60;;;;;;5075279;28;20300;-69
2022/03/04 04:43:47;;;;;;;;;;;13.00;51.20;;;;;;5074949;28;20301;-68
2022/03/04 04:46:13;;;;;;;;;;;13.00;51.20;;;;;;5074420;28;19924;-69
2022/03/04 04:48:40;;;;;;;;;;;13.90;51.70;;;;;;5074823;28;19924;-69
2022/03/04 04:51:06;;;;;;;;;;;12.90;51.10;;;;;;5074834;28;19935;-69
2022/03/04 04:53:34;;;;;;;;;;;13.70;51.60;;;;;;5076050;28;19924;-69
2022/03/04 04:56:02;;;;;;;;;;;12.90;51.10;;;;;;5074723;28;19971;-69
2022/03/04 04:58:28;;;;;;;;;;;13.30;51.30;;;;;;5074460;28;20023;-69
2022/03/04 05:00:55;;;;;;;;;;;12.90;51.10;;;;;;5074901;28;19947;-69
2022/03/04 05:03:22;;;;;;;;;;;13.00;51.20;;;;;;5074462;28;20381;-69
2022/03/04 05:05:48;;;;;;;;;;;12.90;51.10;;;;;;5074531;28;19932;-69
2022/03/04 05:08:15;;;;;;;;;;;13.00;51.20;;;;;;5074604;28;19925;-70
2022/03/04 05:10:41;;;;;;;;;;;12.90;51.10;;;;;;5075248;28;20405;-69
2022/03/04 05:13:09;;;;;;;;;;;13.20;51.30;;;;;;5074483;28;19924;-69
2022/03/04 05:15:36;;;;;;;;;;;13.00;51.10;;;;;;5074157;28;20326;-69
2022/03/04 05:18:02;;;;;;;;;;;13.00;51.10;;;;;;5074484;28;20031;-69
2022/03/04 05:20:29;;;;;;;;;;;13.20;51.20;;;;;;5074650;28;19935;-69
2022/03/04 05:22:55;;;;;;;;;;;13.80;51.60;;;;;;5073818;28;19931;-69
2022/03/04 05:25:22;;;;;;;;;;;12.90;51.10;;;;;;5078186;28;19930;-68
2022/03/04 05:27:48;;;;;;;;;;;12.90;51.10;;;;;;5094539;28;19934;-69
2022/03/04 05:30:16;;;;;;;;;;;12.90;51.10;;;;;;5094318;28;19924;-69
2022/03/04 05:32:43;;;;;;;;;;;12.90;51.00;;;;;;5094045;28;20620;-69
2022/03/04 05:35:09;;;;;;;;;;;12.90;51.10;;;;;;5094476;28;19924;-69
2022/03/04 05:37:36;;;;;;;;;;;13.00;51.10;;;;;;5092721;28;19924;-69
2022/03/04 05:40:03;;;;;;;;;;;13.80;51.60;;;;;;5094133;28;19924;-69
2022/03/04 05:42:29;;;;;;;;;;;12.90;51.10;;;;;;5082282;28;19931;-69
2022/03/04 05:44:56;;;;;;;;;;;12.90;51.10;;;;;;5072724;28;19928;-69
2022/03/04 05:47:24;;;;;;;;;;;12.90;51.10;;;;;;5072512;28;20016;-68
2022/03/04 05:49:51;;;;;;;;;;;13.20;51.20;;;;;;5073729;28;20372;-69
2022/03/04 05:52:17;;;;;;;;;;;13.20;51.20;;;;;;5073803;28;19925;-69
2022/03/04 05:54:44;;;;;;;;;;;12.90;51.00;;;;;;5073614;28;19924;-69
2022/03/04 05:57:10;;;;;;;;;;;13.70;51.50;;;;;;5073283;28;19925;-69
2022/03/04 05:59:37;;;;;;;;;;;13.60;51.40;;;;;;5087466;28;19924;-69
2022/03/04 06:02:04;;;;;;;;;;;12.90;51.00;;;;;;5093851;28;20270;-69
2022/03/04 06:04:32;;;;;;;;;;;12.90;51.00;;;;;;5093592;28;20509;-69
2022/03/04 06:06:58;;;;;;;;;;;13.00;51.00;;;;;;5093310;28;19928;-69
2022/03/04 06:09:28;;;;;;;;;;;13.70;51.50;;;;;;5093841;28;20039;-69
2022/03/04 06:11:55;;;;;;;;;;;12.90;51.00;;;;;;5093403;28;20373;-69
2022/03/04 06:14:21;;;;;;;;;;;13.70;51.50;;;;;;5092037;28;19924;-68
2022/03/04 06:16:48;;;;;;;;;;;12.90;51.00;;;;;;5092845;28;19924;-69
2022/03/04 06:19:14;;;;;;;;;;;12.90;51.00;;;;;;5092169;28;19924;-69
2022/03/04 06:21:42;;;;;;;;;;;13.20;51.20;;;;;;5093455;28;19924;-68
2022/03/04 06:24:09;;;;;;;;;;;12.90;51.00;;;;;;5093829;28;19931;-67
2022/03/04 06:26:36;;;;;;;;;;;12.90;51.60;;;;;;5090406;28;19978;-67
2022/03/04 06:29:02;;;;;;;;;;;13.70;51.50;;;;;;5093192;28;19974;-68
2022/03/04 06:31:29;;;;;;;;;;;12.90;51.00;;;;;;5086334;28;19928;-68
2022/03/04 06:33:56;;;;;;;;;;;12.90;51.10;;;;;;5072068;28;20404;-67
2022/03/04 06:36:23;;;;;;;;;;;12.90;51.00;;;;;;5071741;28;20415;-67
2022/03/04 06:38:51;;;;;;;;;;;12.90;51.10;;;;;;5073634;28;19932;-68
2022/03/04 06:41:17;;;;;;;;;;;12.90;51.10;;;;;;5093290;28;20300;-69
2022/03/04 06:43:44;;;;;;;;;;;13.40;51.40;;;;;;5093303;28;20269;-68
2022/03/04 06:46:11;;;;;;;;;;;13.40;51.40;;;;;;5090953;28;19924;-69
2022/03/04 06:48:37;;;;;;;;;;;12.90;51.10;;;;;;5083605;28;20337;-69
2022/03/04 06:51:04;;;;;;;;;;;13.00;51.10;;;;;;5081705;28;19924;-69
2022/03/04 06:53:30;;;;;;;;;;;12.90;51.00;;;;;;5081260;28;20400;-69
2022/03/04 06:55:58;;;;;;;;;;;13.00;51.10;;;;;;5091743;28;20415;-69
2022/03/04 06:58:25;;;;;;;;;;;13.00;51.10;;;;;;5091048;28;19924;-68
2022/03/04 07:00:52;;;;;;;;;;;13.00;51.10;;;;;;5082738;28;19925;-68
2022/03/04 07:03:19;;;;;;;;;;;13.00;51.10;;;;;;5080413;28;19924;-69
2022/03/04 07:05:46;;;;;;;;;;;13.00;51.00;;;;;;5082223;28;20397;-69
2022/03/04 07:08:13;;;;;;;;;;;13.10;51.20;;;;;;5082590;28;19940;-69
2022/03/04 07:10:40;;;;;;;;;;;13.00;51.10;;;;;;5086962;28;19930;-68
2022/03/04 07:13:08;;;;;;;;;;;13.90;51.60;;;;;;5092979;28;20015;-69
2022/03/04 07:15:34;;;;;;;;;;;13.10;51.10;;;;;;5088991;28;20288;-69
2022/03/04 07:18:02;;;;;;;;;;;13.20;51.20;;;;;;5089024;28;19970;-69
2022/03/04 07:20:28;;;;;;;;;;;13.30;51.20;;;;;;5072673;28;20019;-69
2022/03/04 07:22:55;;;;;;;;;;;13.10;51.10;;;;;;5072391;28;19931;-69
2022/03/04 07:25:21;;;;;;;;;;;13.10;51.10;;;;;;5076962;28;19935;-70
2022/03/04 07:27:48;;;;;;;;;;;13.10;51.70;;;;;;5080691;28;19931;-72
2022/03/04 07:30:16;;;;;;;;;;;13.10;51.10;;;;;;5072365;28;20369;-70
2022/03/04 07:32:43;;;;;;;;;;;13.10;51.10;;;;;;5071925;28;19925;-70
2022/03/04 07:35:11;;;;;;;;;;;13.60;51.40;;;;;;5072509;28;19928;-70
2022/03/04 07:37:37;;;;;;;;;;;13.20;51.10;;;;;;5071035;28;19928;-69
2022/03/04 07:40:04;;;;;;;;;;;13.20;51.10;;;;;;5072236;28;19931;-70
2022/03/04 07:42:31;;;;;;;;;;;13.20;51.10;;;;;;5070709;28;19930;-70
2022/03/04 07:44:57;;;;;;;;;;;13.20;51.10;;;;;;5072213;28;19931;-69
2022/03/04 07:47:25;;;;;;;;;;;13.20;51.10;;;;;;5091189;28;19928;-70
2022/03/04 07:49:52;;;;;;;;;;;13.20;51.10;;;;;;5096470;28;19931;-70
2022/03/04 07:52:18;;;;;;;;;;;13.20;51.10;;;;;;5096645;28;19924;-70
2022/03/04 07:54:45;;;;;;;;;;;13.70;51.30;;;;;;5096342;28;19924;-70
2022/03/04 07:57:12;;;;;;;;;;;13.20;51.00;;;;;;5094902;28;19928;-70
2022/03/04 07:59:38;;;;;;;;;;;13.70;51.30;;;;;;5096466;28;19924;-70
2022/03/04 08:02:05;;;;;;;;;;;14.20;51.60;;;;;;5096245;28;20307;-71
2022/03/04 08:04:33;;;;;;;;;;;13.30;51.10;;;;;;5076970;28;19935;-70
2022/03/04 08:06:59;;;;;;;;;;;13.30;51.10;;;;;;5074423;28;19931;-68
2022/03/04 08:09:26;;;;;;;;;;;13.30;51.00;;;;;;5075658;28;20463;-70
2022/03/04 08:11:53;;;;;;;;;;;13.30;51.00;;;;;;5075676;28;20304;-71
2022/03/04 08:14:19;;;;;;;;;;;13.40;51.00;;;;;;5075671;28;19924;-72
2022/03/04 08:16:46;;;;;;;;;;;13.40;51.10;;;;;;5074028;28;19925;-71
2022/03/04 08:19:12;;;;;;;;;;;13.50;52.10;;;;;;5076860;28;19928;-69
2022/03/04 08:21:40;;;;;;;;;;;13.60;52.50;;;;;;5075513;28;19931;-70
2022/03/04 08:24:07;;;;;;;;;;;14.00;52.80;;;;;;5076211;28;19930;-69
2022/03/04 08:26:34;;;;;;;;;;;13.90;52.20;;;;;;5089778;28;19931;-69
2022/03/04 08:29:00;;;;;;;;;;;14.00;51.70;;;;;;5087370;28;20019;-69
2022/03/04 08:31:27;;;;;;;;;;;14.30;51.60;;;;;;5075284;28;20014;-69
2022/03/04 08:33:53;;;;;;;;;;;14.20;51.20;;;;;;5079783;28;19932;-69
2022/03/04 08:36:20;;;;;;;;;;;14.20;51.00;;;;;;5090545;28;19924;-69
2022/03/04 08:38:48;;;;;;;;;;;14.20;50.80;;;;;;5078342;28;19924;-70
2022/03/04 08:41:15;;;;;;;;;;;14.30;50.70;;;;;;5076895;28;20420;-71
2022/03/04 08:43:42;;;;;;;;;;;14.30;50.60;;;;;;5083458;28;20385;-71
2022/03/04 08:46:11;;;;;;;;;;;14.30;50.50;;;;;;5084927;28;19959;-71
2022/03/04 08:48:37;;;;;;;;;;;14.30;50.40;;;;;;5080090;28;19968;-70
2022/03/04 08:51:04;;;;;;;;;;;14.40;50.30;;;;;;5085081;28;19954;-70
2022/03/04 08:53:31;;;;;;;;;;;14.40;50.30;;;;;;5095233;28;20035;-70
2022/03/04 08:55:59;;;;;;;;;;;14.40;50.20;;;;;;5094152;28;19925;-70
2022/03/04 08:58:26;;;;;;;;;;;14.50;50.30;;;;;;5074543;28;19929;-71
2022/03/04 09:00:52;;;;;;;;;;;14.50;50.50;;;;;;5074370;28;19925;-71
2022/03/04 09:03:19;;;;;;;;;;;14.50;50.80;;;;;;5079082;28;20019;-70
2022/03/04 09:05:46;;;;;;;;;;;14.50;50.90;;;;;;5083136;28;19925;-69
2022/03/04 09:08:13;;;;;;;;;;;14.60;51.20;;;;;;5074186;28;19932;-69
2022/03/04 09:10:40;;;;;;;;;;;14.60;51.30;;;;;;5074428;28;20400;-69
2022/03/04 09:13:08;;;;;;;;;;;14.70;51.20;;;;;;5074368;28;20019;-70
2022/03/04 09:15:34;;;;;;;;;;;14.70;51.00;;;;;;5074287;28;20020;-69
2022/03/04 09:18:01;;;;;;;;;;;14.80;50.70;;;;;;5074418;28;20432;-70
2022/03/04 09:20:28;;;;;;;;;;;14.80;50.70;;;;;;5074146;28;19925;-68
2022/03/04 09:22:55;;;;;;;;;;;14.80;50.70;;;;;;5073981;28;20468;-70
2022/03/04 09:25:22;;;;;;;;;;;14.80;50.60;;;;;;5073721;28;20418;-67
2022/03/04 09:27:50;;;;;;;;;;;14.80;50.60;;;;;;5074218;28;19971;-68
2022/03/04 09:30:18;;;;;;;;;;;14.90;50.60;;;;;;5073122;28;20385;-68
2022/03/04 09:32:44;;;;;;;;;;;14.90;50.40;;;;;;5074197;28;19983;-67
2022/03/04 09:35:11;;;;;;;;;;;14.80;50.20;;;;;;5074288;28;19979;-69
2022/03/04 09:37:38;;;;;;;;;;;14.80;50.10;;;;;;5072881;28;19968;-68
2022/03/04 09:40:05;;;;;;;;;;;14.90;50.10;;;;;;5088103;28;20424;-68
2022/03/04 09:42:32;;;;;;;;;;;14.90;50.10;;;;;;5074154;28;20428;-69
2022/03/04 09:44:59;;;;;;;;;;;14.90;50.00;;;;;;5073905;28;19924;-68
2022/03/04 09:47:27;;;;;;;;;;;14.90;49.90;;;;;;5072451;28;19925;-68
2022/03/04 09:49:53;;;;;;;;;;;14.90;49.90;;;;;;5073953;28;19925;-68
2022/03/04 09:52:20;;;;;;;;;;;14.90;49.80;;;;;;5073954;28;19924;-68
2022/03/04 09:54:47;;;;;;;;;;;14.90;49.80;;;;;;5073668;28;20274;-68
2022/03/04 09:57:14;;;;;;;;;;;15.00;49.80;;;;;;5072434;28;19947;-68
2022/03/04 09:59:40;;;;;;;;;;;15.00;49.80;;;;;;5073575;28;19946;-68
2022/03/04 10:02:07;;;;;;;;;;;15.00;49.80;;;;;;5073912;28;19931;-69
2022/03/04 10:04:37;;;;;;;;;;;15.00;49.80;;;;;;5073635;28;19931;-69
2022/03/04 10:07:10;;;;;;;;;;;15.00;49.70;;;;;;5072951;28;20385;-68
2022/03/04 10:09:37;;;;;;;;;;;15.00;49.70;;;;;;5073534;28;19924;-69
2022/03/04 10:12:04;;;;;;;;;;;15.00;49.70;;;;;;5071847;28;19924;-68
2022/03/04 10:14:30;;;;;;;;;;;15.00;49.70;;;;;;5073463;28;20305;-69
2022/03/04 10:16:57;;;;;;;;;;;15.00;49.70;;;;;;5073078;28;20296;-68
2022/03/04 10:19:24;;;;;;;;;;;15.00;49.70;;;;;;5073024;28;19931;-68
2022/03/04 10:21:53;;;;;;;;;;;15.00;49.70;;;;;;5073271;28;19971;-68
2022/03/04 10:24:21;;;;;;;;;;;15.00;49.70;;;;;;5073265;28;19925;-69
2022/03/04 10:26:48;;;;;;;;;;;15.00;49.70;;;;;;5071642;28;20395;-68
2022/03/04 10:29:18;;;;;;;;;;;15.00;49.60;;;;;;5072975;28;19932;-68
2022/03/04 10:32:00;;;;;;;;;;;15.00;49.50;;;;;;5073144;28;19932;-68
2022/03/04 10:34:26;;;;;;;;;;;15.00;49.60;;;;;;5073040;28;19924;-68
2022/03/04 10:36:55;;;;;;;;;;;15.10;49.60;;;;;;5072220;28;20377;-69
2022/03/04 10:39:21;;;;;;;;;;;15.10;49.60;;;;;;5072932;28;19925;-68
2022/03/04 10:41:49;;;;;;;;;;;15.10;49.50;;;;;;5073051;28;20035;-68
2022/03/04 10:44:24;;;;;;;;;;;15.10;49.50;;;;;;5072660;28;19924;-69
2022/03/04 10:46:54;;;;;;;;;;;15.10;49.50;;;;;;5072846;28;19924;-69
2022/03/04 10:49:23;;;;;;;;;;;15.10;49.60;;;;;;5073002;28;19931;-68
2022/03/04 10:51:50;;;;;;;;;;;15.10;49.50;;;;;;5073126;28;19924;-69
2022/03/04 10:54:18;;;;;;;;;;;15.20;49.60;;;;;;5072302;28;20015;-68
2022/03/04 10:56:48;;;;;;;;;;;15.20;49.50;;;;;;5072489;28;20360;-68
2022/03/04 10:59:14;;;;;;;;;;;15.20;49.40;;;;;;5072649;28;19931;-68
2022/03/04 11:01:46;;;;;;;;;;;15.20;49.40;;;;;;5072856;28;19925;-69
2022/03/04 11:04:12;;;;;;;;;;;15.20;49.40;;;;;;5072484;28;19936;-69
2022/03/04 11:06:39;;;;;;;;;;;15.20;49.40;;;;;;5072454;28;19931;-68
2022/03/04 11:09:05;;;;;;;;;;;15.30;49.40;;;;;;5072365;28;19931;-68
2022/03/04 11:11:33;;;;;;;;;;;15.30;49.40;;;;;;5072347;28;19928;-68
2022/03/04 11:14:00;;;;;;;;;;;15.30;49.40;;;;;;5072502;28;20378;-69
2022/03/04 11:16:26;;;;;;;;;;;15.30;49.30;;;;;;5072236;28;19947;-69
2022/03/04 11:18:53;;;;;;;;;;;15.40;49.40;;;;;;5072348;28;20007;-68
2022/03/04 11:21:19;;;;;;;;;;;15.30;49.40;;;;;;5072510;28;19924;-69
2022/03/04 11:23:46;;;;;;;;;;;15.30;49.40;;;;;;5072750;28;19937;-69
2022/03/04 11:26:19;;;;;;;;;;;15.30;49.40;;;;;;5074494;28;19968;-69
2022/03/04 11:28:49;;;;;;;;;;;15.40;49.40;;;;;;5092337;28;19924;-68
2022/03/04 11:31:16;;;;;;;;;;;15.40;49.40;;;;;;5072250;28;19996;-67
2022/03/04 11:33:43;;;;;;;;;;;15.40;49.40;;;;;;5072090;28;20300;-68
2022/03/04 11:36:13;;;;;;;;;;;15.40;49.40;;;;;;5071721;28;20292;-71
2022/03/04 11:39:07;;;;;;;;;;;15.40;49.40;;;;;;5071261;28;19931;-70
2022/03/04 11:41:49;;;;;;;;;;;15.50;49.50;;;;;;5087474;28;20274;-70
2022/03/04 11:44:18;;;;;;;;;;;15.40;49.50;;;;;;5073526;28;19924;-69
2022/03/04 11:46:48;;;;;;;;;;;15.40;49.50;;;;;;5079992;28;19931;-71
2022/03/04 11:49:25;;;;;;;;;;;15.50;49.50;;;;;;5087848;28;20007;-71
2022/03/04 11:52:10;;;;;;;;;;;15.50;49.50;;;;;;5078536;28;20433;-71
2022/03/04 11:54:37;;;;;;;;;;;15.50;49.50;;;;;;5078318;28;19925;-71
2022/03/04 11:57:14;;;;;;;;;;;15.50;49.50;;;;;;5077244;28;19964;-71
2022/03/04 11:59:42;;;;;;;;;;;15.50;49.50;;;;;;5070766;28;19933;-70
2022/03/04 12:02:09;;;;;;;;;;;15.50;49.50;;;;;;5071274;28;20008;-71
2022/03/04 12:04:35;;;;;;;;;;;15.40;49.40;;;;;;5071303;28;19925;-68
2022/03/04 12:07:08;;;;;;;;;;;15.40;49.40;;;;;;5070927;28;20495;-70
2022/03/04 12:09:35;;;;;;;;;;;15.50;49.40;;;;;;5075449;28;19924;-70
2022/03/04 12:12:11;;;;;;;;;;;15.40;49.40;;;;;;5089890;28;19931;-70
2022/03/04 12:14:38;;;;;;;;;;;15.40;49.40;;;;;;5085911;28;19924;-70
2022/03/04 12:17:06;;;;;;;;;;;15.40;49.40;;;;;;5071265;28;19950;-70
2022/03/04 12:19:34;;;;;;;;;;;15.40;49.40;;;;;;5071709;28;19928;-70
2022/03/04 12:22:00;;;;;;;;;;;15.40;49.50;;;;;;5071866;28;19931;-70
2022/03/04 12:24:30;;;;;;;;;;;15.30;49.50;;;;;;5071875;28;19925;-70
2022/03/04 12:26:57;;;;;;;;;;;15.30;49.50;;;;;;5074192;28;19924;-70
2022/03/04 12:29:25;;;;;;;;;;;15.30;49.40;;;;;;5073494;28;19935;-70
2022/03/04 12:31:53;;;;;;;;;;;15.30;49.50;;;;;;5081697;28;20026;-70
2022/03/04 12:34:22;;;;;;;;;;;15.20;50.00;;;;;;5076297;28;20015;-70
2022/03/04 12:36:50;;;;;;;;;;;15.20;49.50;;;;;;5074827;28;19931;-70
2022/03/04 12:39:17;;;;;;;;;;;15.20;49.60;;;;;;5073943;28;19930;-70
2022/03/04 12:41:44;;;;;;;;;;;15.20;49.60;;;;;;5086205;28;19924;-70
2022/03/04 12:44:10;;;;;;;;;;;15.10;49.50;;;;;;5085336;28;19924;-70
2022/03/04 12:46:37;;;;;;;;;;;15.20;49.60;;;;;;5085160;28;19970;-70
2022/03/04 12:49:04;;;;;;;;;;;15.10;49.50;;;;;;5084954;28;19938;-70
2022/03/04 12:51:32;;;;;;;;;;;15.10;49.50;;;;;;5084911;28;19931;-70
2022/03/04 12:53:59;;;;;;;;;;;15.10;49.60;;;;;;5086361;28;19963;-70
2022/03/04 12:56:26;;;;;;;;;;;15.00;49.50;;;;;;5094654;28;19979;-70
2022/03/04 12:58:54;;;;;;;;;;;15.00;49.60;;;;;;5082595;28;20401;-70
2022/03/04 13:01:22;;;;;;;;;;;15.00;49.60;;;;;;5084653;28;19939;-71
2022/03/04 13:03:52;;;;;;;;;;;15.00;49.60;;;;;;5083003;28;19931;-70
2022/03/04 13:06:19;;;;;;;;;;;14.90;49.60;;;;;;5083349;28;19924;-70
2022/03/04 13:08:47;;;;;;;;;;;14.90;49.70;;;;;;5083545;28;19928;-70
2022/03/04 13:11:14;;;;;;;;;;;14.90;49.70;;;;;;5083310;28;19924;-69
2022/03/04 13:13:45;;;;;;;;;;;14.80;49.70;;;;;;5083507;28;20372;-70
2022/03/04 13:16:11;;;;;;;;;;;14.80;49.70;;;;;;5084607;28;20300;-70
2022/03/04 13:18:38;;;;;;;;;;;14.80;49.80;;;;;;5083580;28;20297;-70
2022/03/04 13:21:05;;;;;;;;;;;14.80;49.80;;;;;;5087557;28;19924;-69
2022/03/04 13:23:32;;;;;;;;;;;14.70;49.90;;;;;;5094892;28;19924;-71
2022/03/04 13:26:05;;;;;;;;;;;14.70;49.90;;;;;;5094365;28;19928;-71
2022/03/04 13:28:47;;;;;;;;;;;14.70;50.00;;;;;;5094591;28;20015;-71
2022/03/04 13:31:21;;;;;;;;;;;14.70;50.00;;;;;;5094453;28;19924;-71
2022/03/04 13:33:47;;;;;;;;;;;14.60;50.00;;;;;;5075210;28;19931;-71
2022/03/04 13:36:14;;;;;;;;;;;14.60;50.00;;;;;;5073785;28;19924;-71
2022/03/04 13:38:40;;;;;;;;;;;14.60;50.10;;;;;;5073193;28;19924;-71
2022/03/04 13:41:21;;;;;;;;;;;14.60;50.10;;;;;;5073031;28;19925;-70
2022/03/04 13:43:48;;;;;;;;;;;14.50;50.00;;;;;;5073775;28;19931;-71
2022/03/04 13:46:14;;;;;;;;;;;14.50;50.10;;;;;;5073398;28;19924;-71
2022/03/04 13:48:41;;;;;;;;;;;14.50;50.10;;;;;;5079565;28;19924;-71
2022/03/04 13:51:11;;;;;;;;;;;14.50;50.10;;;;;;5093697;28;19924;-71
2022/03/04 13:53:38;;;;;;;;;;;14.50;50.20;;;;;;5093034;28;20389;-71
2022/03/04 13:56:04;;;;;;;;;;;14.40;50.20;;;;;;5093299;28;20303;-71
2022/03/04 13:58:32;;;;;;;;;;;14.40;50.20;;;;;;5093972;28;20180;-71
2022/03/04 14:00:59;;;;;;;;;;;14.40;50.20;;;;;;5092800;28;19930;-71
2022/03/04 14:03:26;;;;;;;;;;;14.40;50.20;;;;;;5093939;28;19955;-71
2022/03/04 14:05:59;;;;;;;;;;;14.30;50.20;;;;;;5091642;28;19928;-71
2022/03/04 14:08:26;;;;;;;;;;;14.30;50.20;;;;;;5091520;28;19924;-69
2022/03/04 14:10:52;;;;;;;;;;;14.30;50.20;;;;;;5086302;28;19928;-70
2022/03/04 14:13:19;;;;;;;;;;;14.30;50.20;;;;;;5083589;28;19932;-70
2022/03/04 14:15:48;;;;;;;;;;;14.30;50.20;;;;;;5093358;28;20288;-70
2022/03/04 14:18:15;;;;;;;;;;;14.30;50.30;;;;;;5093571;28;19924;-70